40IL weather

Antique Aerodrome
Cornell, Illinois, United States

Public forecast

Using degrees Fahrenheit for public forecast. Weather courtesy of forecast.io.

Closest aviation weather report (METAR) to Antique Aerodrome

Closest report is Pontiac Municipal Airport, 5.1 nm (9.5 km) SSE. Retrieved 2020/08/06 21:35 UTC (23 minutes ago):

KPNT 062135Z AUTO 00000KT 10SM SCT049 SCT070 25/13 A3012 RMK AO2 T02450128

Closest aviation forecast (TAF) to Antique Aerodrome

Closest forecast is Central Illinois Regional Airport at Bloomington-Normal, 33.8 nm (62.7 km) SSW. Retrieved 2020/08/06 18:22 UTC (4 hours ago):

TAF KBMI 061720Z 0618/0718 10003KT P6SM SCT060 FM071400 14005KT P6SM SCT150